sensor_id;sensor_type;location;lat;lon;timestamp;temperature;humidity
7894;DHT22;51343;51.396;6.656;2023-07-13T00:01:11;17.00;15.30
7894;DHT22;51343;51.396;6.656;2023-07-13T00:03:39;17.00;1.00
7894;DHT22;51343;51.396;6.656;2023-07-13T00:06:06;17.00;99.90
7894;DHT22;51343;51.396;6.656;2023-07-13T00:08:33;16.90;1.00
7894;DHT22;51343;51.396;6.656;2023-07-13T00:11:00;17.00;1.00
7894;DHT22;51343;51.396;6.656;2023-07-13T00:13:27;17.00;66.40
7894;DHT22;51343;51.396;6.656;2023-07-13T00:15:54;17.00;1.00
7894;DHT22;51343;51.396;6.656;2023-07-13T00:18:21;16.90;99.90
7894;DHT22;51343;51.396;6.656;2023-07-13T00:20:49;17.00;1.00
7894;DHT22;51343;51.396;6.656;2023-07-13T00:23:16;17.00;99.90
7894;DHT22;51343;51.396;6.656;2023-07-13T00:25:44;17.00;1.00
7894;DHT22;51343;51.396;6.656;2023-07-13T00:28:10;17.00;99.90
7894;DHT22;51343;51.396;6.656;2023-07-13T00:30:37;17.00;99.90
7894;DHT22;51343;51.396;6.656;2023-07-13T00:33:04;17.00;1.00
7894;DHT22;51343;51.396;6.656;2023-07-13T00:35:30;16.90;1.00
7894;DHT22;51343;51.396;6.656;2023-07-13T00:37:58;16.90;1.00
7894;DHT22;51343;51.396;6.656;2023-07-13T00:40:25;17.00;1.00
7894;DHT22;51343;51.396;6.656;2023-07-13T00:42:52;17.00;1.00
7894;DHT22;51343;51.396;6.656;2023-07-13T00:48:04;17.00;1.00
7894;DHT22;51343;51.396;6.656;2023-07-13T00:50:31;16.90;1.00
7894;DHT22;51343;51.396;6.656;2023-07-13T00:52:59;16.90;1.00
7894;DHT22;51343;51.396;6.656;2023-07-13T00:55:25;17.00;1.00
7894;DHT22;51343;51.396;6.656;2023-07-13T00:57:53;16.90;1.00
7894;DHT22;51343;51.396;6.656;2023-07-13T01:00:20;16.90;1.00
7894;DHT22;51343;51.396;6.656;2023-07-13T01:02:46;16.90;1.00
7894;DHT22;51343;51.396;6.656;2023-07-13T01:05:15;16.90;1.00
7894;DHT22;51343;51.396;6.656;2023-07-13T01:07:42;16.90;1.00
7894;DHT22;51343;51.396;6.656;2023-07-13T01:10:10;17.00;1.00
7894;DHT22;51343;51.396;6.656;2023-07-13T01:12:37;17.00;1.00
7894;DHT22;51343;51.396;6.656;2023-07-13T01:15:04;16.90;1.00
7894;DHT22;51343;51.396;6.656;2023-07-13T01:17:33;16.90;1.00
7894;DHT22;51343;51.396;6.656;2023-07-13T01:20:00;16.90;1.00
7894;DHT22;51343;51.396;6.656;2023-07-13T01:22:28;16.90;1.00
7894;DHT22;51343;51.396;6.656;2023-07-13T01:24:54;16.90;1.00
7894;DHT22;51343;51.396;6.656;2023-07-13T01:27:22;16.90;99.90
7894;DHT22;51343;51.396;6.656;2023-07-13T01:29:50;16.80;1.00
7894;DHT22;51343;51.396;6.656;2023-07-13T01:32:18;16.80;1.00
7894;DHT22;51343;51.396;6.656;2023-07-13T01:34:48;16.80;99.90
7894;DHT22;51343;51.396;6.656;2023-07-13T01:37:15;16.80;99.90
7894;DHT22;51343;51.396;6.656;2023-07-13T01:39:43;16.80;99.90
7894;DHT22;51343;51.396;6.656;2023-07-13T01:42:09;16.70;99.90
7894;DHT22;51343;51.396;6.656;2023-07-13T01:44:36;16.80;99.90
7894;DHT22;51343;51.396;6.656;2023-07-13T01:47:03;16.70;99.90
7894;DHT22;51343;51.396;6.656;2023-07-13T01:49:30;16.70;99.90
7894;DHT22;51343;51.396;6.656;2023-07-13T01:51:56;16.70;99.90
7894;DHT22;51343;51.396;6.656;2023-07-13T01:54:23;16.70;99.90
7894;DHT22;51343;51.396;6.656;2023-07-13T01:56:51;16.60;1.00
7894;DHT22;51343;51.396;6.656;2023-07-13T01:59:17;16.60;1.00
7894;DHT22;51343;51.396;6.656;2023-07-13T02:01:44;16.60;1.00
7894;DHT22;51343;51.396;6.656;2023-07-13T02:04:10;16.60;1.00
7894;DHT22;51343;51.396;6.656;2023-07-13T02:06:37;16.50;48.20
7894;DHT22;51343;51.396;6.656;2023-07-13T02:09:04;16.50;99.90
7894;DHT22;51343;51.396;6.656;2023-07-13T02:11:31;16.60;99.90
7894;DHT22;51343;51.396;6.656;2023-07-13T02:14:00;16.60;99.90
7894;DHT22;51343;51.396;6.656;2023-07-13T02:16:27;16.50;1.00
7894;DHT22;51343;51.396;6.656;2023-07-13T02:18:53;16.50;99.90
7894;DHT22;51343;51.396;6.656;2023-07-13T02:21:20;16.50;99.90
7894;DHT22;51343;51.396;6.656;2023-07-13T02:23:47;16.40;1.00
7894;DHT22;51343;51.396;6.656;2023-07-13T02:26:14;16.40;1.00
7894;DHT22;51343;51.396;6.656;2023-07-13T02:28:41;16.40;1.00
7894;DHT22;51343;51.396;6.656;2023-07-13T02:31:10;16.30;99.90
7894;DHT22;51343;51.396;6.656;2023-07-13T02:33:37;16.30;99.90
7894;DHT22;51343;51.396;6.656;2023-07-13T02:36:04;16.30;1.00
7894;DHT22;51343;51.396;6.656;2023-07-13T02:38:31;16.30;1.00
7894;DHT22;51343;51.396;6.656;2023-07-13T02:40:58;16.30;99.90
7894;DHT22;51343;51.396;6.656;2023-07-13T02:43:25;16.20;99.90
7894;DHT22;51343;51.396;6.656;2023-07-13T02:45:52;16.20;1.00
7894;DHT22;51343;51.396;6.656;2023-07-13T02:48:20;16.20;99.90
7894;DHT22;51343;51.396;6.656;2023-07-13T02:50:46;16.20;1.00
7894;DHT22;51343;51.396;6.656;2023-07-13T02:53:13;16.20;48.90
7894;DHT22;51343;51.396;6.656;2023-07-13T02:55:39;16.20;99.90
7894;DHT22;51343;51.396;6.656;2023-07-13T02:58:12;16.20;1.00
7894;DHT22;51343;51.396;6.656;2023-07-13T03:00:42;16.10;99.90
7894;DHT22;51343;51.396;6.656;2023-07-13T03:03:09;16.10;1.00
7894;DHT22;51343;51.396;6.656;2023-07-13T03:05:37;16.10;1.00
7894;DHT22;51343;51.396;6.656;2023-07-13T03:08:04;16.20;1.00
7894;DHT22;51343;51.396;6.656;2023-07-13T03:10:31;16.10;1.00
7894;DHT22;51343;51.396;6.656;2023-07-13T03:12:58;16.10;99.90
7894;DHT22;51343;51.396;6.656;2023-07-13T03:15:24;16.10;1.00
7894;DHT22;51343;51.396;6.656;2023-07-13T03:17:51;16.00;99.90
7894;DHT22;51343;51.396;6.656;2023-07-13T03:20:18;16.10;1.00
7894;DHT22;51343;51.396;6.656;2023-07-13T03:22:46;16.00;1.00
7894;DHT22;51343;51.396;6.656;2023-07-13T03:25:13;16.00;1.00
7894;DHT22;51343;51.396;6.656;2023-07-13T03:27:39;16.00;1.00
7894;DHT22;51343;51.396;6.656;2023-07-13T03:30:06;16.00;1.00
7894;DHT22;51343;51.396;6.656;2023-07-13T03:32:33;16.00;1.00
7894;DHT22;51343;51.396;6.656;2023-07-13T03:35:00;16.00;99.90
7894;DHT22;51343;51.396;6.656;2023-07-13T03:37:26;16.00;1.00
7894;DHT22;51343;51.396;6.656;2023-07-13T03:39:54;16.00;99.90
7894;DHT22;51343;51.396;6.656;2023-07-13T03:42:21;16.00;99.90
7894;DHT22;51343;51.396;6.656;2023-07-13T03:44:48;15.90;1.00
7894;DHT22;51343;51.396;6.656;2023-07-13T03:47:17;15.90;1.00
7894;DHT22;51343;51.396;6.656;2023-07-13T03:49:44;15.90;18.90
7894;DHT22;51343;51.396;6.656;2023-07-13T03:52:11;15.90;99.90
7894;DHT22;51343;51.396;6.656;2023-07-13T03:54:38;15.80;1.00
7894;DHT22;51343;51.396;6.656;2023-07-13T03:57:06;15.80;99.90
7894;DHT22;51343;51.396;6.656;2023-07-13T03:59:33;15.80;99.90
7894;DHT22;51343;51.396;6.656;2023-07-13T04:02:01;15.70;1.00
7894;DHT22;51343;51.396;6.656;2023-07-13T04:04:30;15.80;99.90
7894;DHT22;51343;51.396;6.656;2023-07-13T04:06:57;15.70;1.00
7894;DHT22;51343;51.396;6.656;2023-07-13T04:09:23;15.70;99.90
7894;DHT22;51343;51.396;6.656;2023-07-13T04:11:50;15.70;99.90
7894;DHT22;51343;51.396;6.656;2023-07-13T04:14:18;15.70;93.10
7894;DHT22;51343;51.396;6.656;2023-07-13T04:16:44;15.70;99.90
7894;DHT22;51343;51.396;6.656;2023-07-13T04:19:12;15.70;99.90
7894;DHT22;51343;51.396;6.656;2023-07-13T04:21:39;15.80;99.90
7894;DHT22;51343;51.396;6.656;2023-07-13T04:24:06;15.80;99.90
7894;DHT22;51343;51.396;6.656;2023-07-13T04:26:33;15.90;1.00
7894;DHT22;51343;51.396;6.656;2023-07-13T04:29:01;15.90;99.90
7894;DHT22;51343;51.396;6.656;2023-07-13T04:31:30;15.90;99.90
7894;DHT22;51343;51.396;6.656;2023-07-13T04:33:57;15.90;99.90
7894;DHT22;51343;51.396;6.656;2023-07-13T04:36:24;15.90;1.00
7894;DHT22;51343;51.396;6.656;2023-07-13T04:38:52;15.80;99.90
7894;DHT22;51343;51.396;6.656;2023-07-13T04:41:19;15.90;1.00
7894;DHT22;51343;51.396;6.656;2023-07-13T04:43:46;15.90;99.90
7894;DHT22;51343;51.396;6.656;2023-07-13T04:46:15;15.90;99.90
7894;DHT22;51343;51.396;6.656;2023-07-13T04:48:44;15.90;99.90
7894;DHT22;51343;51.396;6.656;2023-07-13T04:51:10;15.90;52.10
7894;DHT22;51343;51.396;6.656;2023-07-13T04:53:37;16.00;99.90
7894;DHT22;51343;51.396;6.656;2023-07-13T04:56:04;16.00;1.00
7894;DHT22;51343;51.396;6.656;2023-07-13T04:58:31;16.10;1.00
7894;DHT22;51343;51.396;6.656;2023-07-13T05:00:59;16.10;1.00
7894;DHT22;51343;51.396;6.656;2023-07-13T05:03:26;16.10;99.90
7894;DHT22;51343;51.396;6.656;2023-07-13T05:05:58;16.20;1.00
7894;DHT22;51343;51.396;6.656;2023-07-13T05:08:25;16.20;1.00
7894;DHT22;51343;51.396;6.656;2023-07-13T05:10:52;16.20;1.00
7894;DHT22;51343;51.396;6.656;2023-07-13T05:13:19;16.30;1.00
7894;DHT22;51343;51.396;6.656;2023-07-13T05:15:46;16.40;92.30
7894;DHT22;51343;51.396;6.656;2023-07-13T05:18:13;16.40;1.00
7894;DHT22;51343;51.396;6.656;2023-07-13T05:20:40;16.50;31.50
7894;DHT22;51343;51.396;6.656;2023-07-13T05:23:08;16.50;1.00
7894;DHT22;51343;51.396;6.656;2023-07-13T05:25:34;16.60;1.00
7894;DHT22;51343;51.396;6.656;2023-07-13T05:28:01;16.50;99.90
7894;DHT22;51343;51.396;6.656;2023-07-13T05:30:27;16.60;1.00
7894;DHT22;51343;51.396;6.656;2023-07-13T05:32:54;16.70;99.90
7894;DHT22;51343;51.396;6.656;2023-07-13T05:35:21;16.70;1.00
7894;DHT22;51343;51.396;6.656;2023-07-13T05:37:47;16.80;99.90
7894;DHT22;51343;51.396;6.656;2023-07-13T05:40:15;16.80;99.90
7894;DHT22;51343;51.396;6.656;2023-07-13T05:42:42;16.90;99.90
7894;DHT22;51343;51.396;6.656;2023-07-13T05:45:09;16.90;99.90
7894;DHT22;51343;51.396;6.656;2023-07-13T05:47:35;17.00;99.90
7894;DHT22;51343;51.396;6.656;2023-07-13T05:50:02;17.10;99.90
7894;DHT22;51343;51.396;6.656;2023-07-13T05:52:29;17.10;52.80
7894;DHT22;51343;51.396;6.656;2023-07-13T05:54:55;17.20;99.90
7894;DHT22;51343;51.396;6.656;2023-07-13T05:57:23;17.20;99.90
7894;DHT22;51343;51.396;6.656;2023-07-13T05:59:50;17.30;99.90
7894;DHT22;51343;51.396;6.656;2023-07-13T06:02:17;17.30;1.00
7894;DHT22;51343;51.396;6.656;2023-07-13T06:04:43;17.40;99.90
7894;DHT22;51343;51.396;6.656;2023-07-13T06:07:10;17.50;99.90
7894;DHT22;51343;51.396;6.656;2023-07-13T06:09:37;17.60;36.80
7894;DHT22;51343;51.396;6.656;2023-07-13T06:12:04;17.70;1.00
7894;DHT22;51343;51.396;6.656;2023-07-13T06:14:32;17.70;1.00
7894;DHT22;51343;51.396;6.656;2023-07-13T06:16:59;17.70;1.00
7894;DHT22;51343;51.396;6.656;2023-07-13T06:19:25;17.80;1.00
7894;DHT22;51343;51.396;6.656;2023-07-13T06:21:52;17.90;1.00
7894;DHT22;51343;51.396;6.656;2023-07-13T06:24:18;17.90;1.00
7894;DHT22;51343;51.396;6.656;2023-07-13T06:26:45;17.90;1.00
7894;DHT22;51343;51.396;6.656;2023-07-13T06:29:12;17.90;1.00
7894;DHT22;51343;51.396;6.656;2023-07-13T06:31:40;18.00;1.00
7894;DHT22;51343;51.396;6.656;2023-07-13T06:34:07;17.90;99.90
7894;DHT22;51343;51.396;6.656;2023-07-13T06:36:34;18.00;1.00
7894;DHT22;51343;51.396;6.656;2023-07-13T06:39:03;18.00;1.00
7894;DHT22;51343;51.396;6.656;2023-07-13T06:41:30;18.00;1.00
7894;DHT22;51343;51.396;6.656;2023-07-13T06:43:57;18.00;11.10
7894;DHT22;51343;51.396;6.656;2023-07-13T06:46:24;18.00;1.00
7894;DHT22;51343;51.396;6.656;2023-07-13T06:48:52;18.00;1.00
7894;DHT22;51343;51.396;6.656;2023-07-13T06:51:19;17.90;1.00
7894;DHT22;51343;51.396;6.656;2023-07-13T06:53:45;17.80;99.90
7894;DHT22;51343;51.396;6.656;2023-07-13T06:56:12;17.70;99.90
7894;DHT22;51343;51.396;6.656;2023-07-13T06:58:38;17.80;99.90
7894;DHT22;51343;51.396;6.656;2023-07-13T07:01:07;17.80;46.70
7894;DHT22;51343;51.396;6.656;2023-07-13T07:03:33;17.80;99.90
7894;DHT22;51343;51.396;6.656;2023-07-13T07:06:01;17.70;99.90
7894;DHT22;51343;51.396;6.656;2023-07-13T07:08:28;17.70;99.90
7894;DHT22;51343;51.396;6.656;2023-07-13T07:10:55;17.60;99.90
7894;DHT22;51343;51.396;6.656;2023-07-13T07:13:21;17.70;95.80
7894;DHT22;51343;51.396;6.656;2023-07-13T07:15:49;17.70;1.00
7894;DHT22;51343;51.396;6.656;2023-07-13T07:18:16;17.80;99.90
7894;DHT22;51343;51.396;6.656;2023-07-13T07:20:43;17.80;1.00
7894;DHT22;51343;51.396;6.656;2023-07-13T07:23:11;17.80;1.00
7894;DHT22;51343;51.396;6.656;2023-07-13T07:25:37;17.80;99.90
7894;DHT22;51343;51.396;6.656;2023-07-13T07:28:07;17.90;1.00
7894;DHT22;51343;51.396;6.656;2023-07-13T07:30:34;18.00;1.00
7894;DHT22;51343;51.396;6.656;2023-07-13T07:33:00;18.00;99.90
7894;DHT22;51343;51.396;6.656;2023-07-13T07:35:27;18.00;1.00
7894;DHT22;51343;51.396;6.656;2023-07-13T07:37:54;18.10;96.20
7894;DHT22;51343;51.396;6.656;2023-07-13T07:40:22;18.10;1.00
7894;DHT22;51343;51.396;6.656;2023-07-13T07:42:48;18.10;1.00
7894;DHT22;51343;51.396;6.656;2023-07-13T07:45:15;18.10;99.90
7894;DHT22;51343;51.396;6.656;2023-07-13T07:47:42;18.20;1.00
7894;DHT22;51343;51.396;6.656;2023-07-13T07:50:09;18.20;99.90
7894;DHT22;51343;51.396;6.656;2023-07-13T07:52:36;18.20;1.00
7894;DHT22;51343;51.396;6.656;2023-07-13T07:55:03;18.30;99.90
7894;DHT22;51343;51.396;6.656;2023-07-13T07:57:31;18.30;1.00
7894;DHT22;51343;51.396;6.656;2023-07-13T07:59:58;18.40;1.00
7894;DHT22;51343;51.396;6.656;2023-07-13T08:02:25;18.50;99.90
7894;DHT22;51343;51.396;6.656;2023-07-13T08:04:52;18.50;99.90
7894;DHT22;51343;51.396;6.656;2023-07-13T08:07:19;18.50;1.00
7894;DHT22;51343;51.396;6.656;2023-07-13T08:09:45;18.70;1.00
7894;DHT22;51343;51.396;6.656;2023-07-13T08:12:13;18.90;1.00
7894;DHT22;51343;51.396;6.656;2023-07-13T08:14:41;19.00;1.00
7894;DHT22;51343;51.396;6.656;2023-07-13T08:17:07;19.10;1.00
7894;DHT22;51343;51.396;6.656;2023-07-13T08:19:34;19.20;99.90
7894;DHT22;51343;51.396;6.656;2023-07-13T08:22:01;19.40;99.90
7894;DHT22;51343;51.396;6.656;2023-07-13T08:24:27;19.30;1.00
7894;DHT22;51343;51.396;6.656;2023-07-13T08:26:54;19.40;1.00
7894;DHT22;51343;51.396;6.656;2023-07-13T08:29:21;19.50;1.00
7894;DHT22;51343;51.396;6.656;2023-07-13T08:31:49;19.60;99.90
7894;DHT22;51343;51.396;6.656;2023-07-13T08:34:16;19.70;1.00
7894;DHT22;51343;51.396;6.656;2023-07-13T08:36:42;19.80;1.00
7894;DHT22;51343;51.396;6.656;2023-07-13T08:39:09;19.80;99.90
7894;DHT22;51343;51.396;6.656;2023-07-13T08:41:37;19.80;1.00
7894;DHT22;51343;51.396;6.656;2023-07-13T08:44:03;19.70;1.00
7894;DHT22;51343;51.396;6.656;2023-07-13T08:46:32;19.80;1.00
7894;DHT22;51343;51.396;6.656;2023-07-13T08:49:03;19.90;99.90
7894;DHT22;51343;51.396;6.656;2023-07-13T08:51:33;19.90;99.90
7894;DHT22;51343;51.396;6.656;2023-07-13T08:54:03;19.90;99.90
7894;DHT22;51343;51.396;6.656;2023-07-13T08:56:31;19.90;99.90
7894;DHT22;51343;51.396;6.656;2023-07-13T08:59:00;19.90;1.00
7894;DHT22;51343;51.396;6.656;2023-07-13T09:01:30;19.80;79.30
7894;DHT22;51343;51.396;6.656;2023-07-13T09:03:59;19.80;1.00
7894;DHT22;51343;51.396;6.656;2023-07-13T09:06:31;19.90;1.00
7894;DHT22;51343;51.396;6.656;2023-07-13T09:09:00;19.90;99.90
7894;DHT22;51343;51.396;6.656;2023-07-13T09:11:37;20.00;1.00
7894;DHT22;51343;51.396;6.656;2023-07-13T09:14:13;20.00;99.90
7894;DHT22;51343;51.396;6.656;2023-07-13T09:16:46;19.90;1.00
7894;DHT22;51343;51.396;6.656;2023-07-13T09:19:16;20.10;99.90
7894;DHT22;51343;51.396;6.656;2023-07-13T09:21:46;20.20;1.00
7894;DHT22;51343;51.396;6.656;2023-07-13T09:27:01;20.40;99.90
7894;DHT22;51343;51.396;6.656;2023-07-13T09:29:30;20.60;1.00
7894;DHT22;51343;51.396;6.656;2023-07-13T09:32:04;20.80;99.90
7894;DHT22;51343;51.396;6.656;2023-07-13T09:34:33;21.20;59.60
7894;DHT22;51343;51.396;6.656;2023-07-13T09:37:01;21.30;1.00
7894;DHT22;51343;51.396;6.656;2023-07-13T09:39:29;21.20;99.90
7894;DHT22;51343;51.396;6.656;2023-07-13T09:41:57;21.10;1.00
7894;DHT22;51343;51.396;6.656;2023-07-13T09:44:30;20.90;1.00
7894;DHT22;51343;51.396;6.656;2023-07-13T09:46:57;20.80;1.00
7894;DHT22;51343;51.396;6.656;2023-07-13T09:49:24;20.90;82.40
7894;DHT22;51343;51.396;6.656;2023-07-13T09:51:57;21.10;43.20
7894;DHT22;51343;51.396;6.656;2023-07-13T09:54:25;21.30;22.80
7894;DHT22;51343;51.396;6.656;2023-07-13T09:56:54;21.50;99.90
7894;DHT22;51343;51.396;6.656;2023-07-13T09:59:21;21.80;1.00
7894;DHT22;51343;51.396;6.656;2023-07-13T10:01:49;22.10;99.90
7894;DHT22;51343;51.396;6.656;2023-07-13T10:04:17;22.30;1.00
7894;DHT22;51343;51.396;6.656;2023-07-13T10:06:45;22.50;99.90
7894;DHT22;51343;51.396;6.656;2023-07-13T10:09:14;22.50;1.00
7894;DHT22;51343;51.396;6.656;2023-07-13T10:11:42;22.50;99.90
7894;DHT22;51343;51.396;6.656;2023-07-13T10:14:10;22.50;99.90
7894;DHT22;51343;51.396;6.656;2023-07-13T10:16:38;22.60;1.00
7894;DHT22;51343;51.396;6.656;2023-07-13T10:19:05;22.80;1.00
7894;DHT22;51343;51.396;6.656;2023-07-13T10:21:34;22.50;99.90
7894;DHT22;51343;51.396;6.656;2023-07-13T10:24:03;22.40;1.00
7894;DHT22;51343;51.396;6.656;2023-07-13T10:26:31;22.40;1.00
7894;DHT22;51343;51.396;6.656;2023-07-13T10:29:03;22.50;99.90
7894;DHT22;51343;51.396;6.656;2023-07-13T10:31:30;22.30;1.00
7894;DHT22;51343;51.396;6.656;2023-07-13T10:33:57;22.40;99.90
7894;DHT22;51343;51.396;6.656;2023-07-13T10:36:28;22.60;1.00
7894;DHT22;51343;51.396;6.656;2023-07-13T10:38:56;22.80;1.00
7894;DHT22;51343;51.396;6.656;2023-07-13T10:41:24;23.20;1.00
7894;DHT22;51343;51.396;6.656;2023-07-13T10:43:52;23.60;1.00
7894;DHT22;51343;51.396;6.656;2023-07-13T10:46:23;23.70;99.90
7894;DHT22;51343;51.396;6.656;2023-07-13T10:48:53;23.40;1.00
7894;DHT22;51343;51.396;6.656;2023-07-13T10:51:20;23.10;1.00
7894;DHT22;51343;51.396;6.656;2023-07-13T10:53:48;22.80;99.90
7894;DHT22;51343;51.396;6.656;2023-07-13T10:56:34;23.00;1.00
7894;DHT22;51343;51.396;6.656;2023-07-13T10:59:02;23.50;1.00
7894;DHT22;51343;51.396;6.656;2023-07-13T11:01:40;24.00;1.00
7894;DHT22;51343;51.396;6.656;2023-07-13T11:04:08;24.40;74.70
7894;DHT22;51343;51.396;6.656;2023-07-13T11:06:38;24.50;92.40
7894;DHT22;51343;51.396;6.656;2023-07-13T11:09:18;24.30;1.00
7894;DHT22;51343;51.396;6.656;2023-07-13T11:11:44;23.90;93.90
7894;DHT22;51343;51.396;6.656;2023-07-13T11:14:26;24.30;1.00
7894;DHT22;51343;51.396;6.656;2023-07-13T11:16:54;24.60;1.00
7894;DHT22;51343;51.396;6.656;2023-07-13T11:19:25;24.30;99.90
7894;DHT22;51343;51.396;6.656;2023-07-13T11:22:02;24.20;1.00
7894;DHT22;51343;51.396;6.656;2023-07-13T11:24:33;23.80;1.00
7894;DHT22;51343;51.396;6.656;2023-07-13T11:27:21;23.30;1.00
7894;DHT22;51343;51.396;6.656;2023-07-13T11:29:48;23.70;1.00
7894;DHT22;51343;51.396;6.656;2023-07-13T11:32:23;23.90;1.00
7894;DHT22;51343;51.396;6.656;2023-07-13T11:34:52;24.20;1.00
7894;DHT22;51343;51.396;6.656;2023-07-13T11:37:19;24.30;1.00
7894;DHT22;51343;51.396;6.656;2023-07-13T11:39:46;24.70;1.00
7894;DHT22;51343;51.396;6.656;2023-07-13T11:42:16;25.10;1.00
7894;DHT22;51343;51.396;6.656;2023-07-13T11:44:43;24.80;1.00
7894;DHT22;51343;51.396;6.656;2023-07-13T11:47:11;24.80;1.00
7894;DHT22;51343;51.396;6.656;2023-07-13T11:49:40;25.00;1.00
7894;DHT22;51343;51.396;6.656;2023-07-13T11:52:10;25.30;1.00
7894;DHT22;51343;51.396;6.656;2023-07-13T11:54:43;25.70;1.00
7894;DHT22;51343;51.396;6.656;2023-07-13T11:57:19;25.90;1.00
7894;DHT22;51343;51.396;6.656;2023-07-13T11:59:49;26.30;1.00
7894;DHT22;51343;51.396;6.656;2023-07-13T12:02:17;25.90;1.00
7894;DHT22;51343;51.396;6.656;2023-07-13T12:04:45;25.40;1.00
7894;DHT22;51343;51.396;6.656;2023-07-13T12:07:14;24.90;1.00
7894;DHT22;51343;51.396;6.656;2023-07-13T12:09:42;24.80;1.00
7894;DHT22;51343;51.396;6.656;2023-07-13T12:12:10;24.50;1.00
7894;DHT22;51343;51.396;6.656;2023-07-13T12:14:37;24.20;1.00
7894;DHT22;51343;51.396;6.656;2023-07-13T12:17:07;24.50;1.00
7894;DHT22;51343;51.396;6.656;2023-07-13T12:19:35;24.90;1.00
7894;DHT22;51343;51.396;6.656;2023-07-13T12:22:04;24.50;1.00
7894;DHT22;51343;51.396;6.656;2023-07-13T12:24:31;24.30;1.00
7894;DHT22;51343;51.396;6.656;2023-07-13T12:26:59;23.80;1.00
7894;DHT22;51343;51.396;6.656;2023-07-13T12:29:26;23.40;1.00
7894;DHT22;51343;51.396;6.656;2023-07-13T12:31:53;23.40;1.00
7894;DHT22;51343;51.396;6.656;2023-07-13T12:34:22;23.20;1.00
7894;DHT22;51343;51.396;6.656;2023-07-13T12:36:50;23.00;1.00
7894;DHT22;51343;51.396;6.656;2023-07-13T12:39:19;22.80;1.00
7894;DHT22;51343;51.396;6.656;2023-07-13T12:41:47;22.60;1.00
7894;DHT22;51343;51.396;6.656;2023-07-13T12:44:14;22.40;1.00
7894;DHT22;51343;51.396;6.656;2023-07-13T12:46:51;22.30;1.00
7894;DHT22;51343;51.396;6.656;2023-07-13T12:49:18;22.30;1.00
7894;DHT22;51343;51.396;6.656;2023-07-13T12:51:49;22.10;1.00
7894;DHT22;51343;51.396;6.656;2023-07-13T12:54:17;22.00;1.00
7894;DHT22;51343;51.396;6.656;2023-07-13T12:56:45;22.00;1.00
7894;DHT22;51343;51.396;6.656;2023-07-13T12:59:16;22.10;1.00
7894;DHT22;51343;51.396;6.656;2023-07-13T13:01:44;22.40;1.00
7894;DHT22;51343;51.396;6.656;2023-07-13T13:04:12;23.00;1.00
7894;DHT22;51343;51.396;6.656;2023-07-13T13:06:39;23.70;1.00
7894;DHT22;51343;51.396;6.656;2023-07-13T13:09:09;23.90;1.00
7894;DHT22;51343;51.396;6.656;2023-07-13T13:11:38;24.00;1.00
7894;DHT22;51343;51.396;6.656;2023-07-13T13:14:07;24.50;1.00
7894;DHT22;51343;51.396;6.656;2023-07-13T13:16:34;24.50;1.00
7894;DHT22;51343;51.396;6.656;2023-07-13T13:19:05;24.90;1.00
7894;DHT22;51343;51.396;6.656;2023-07-13T13:21:36;25.00;1.00
7894;DHT22;51343;51.396;6.656;2023-07-13T13:24:04;25.10;1.00
7894;DHT22;51343;51.396;6.656;2023-07-13T13:26:31;25.10;1.00
7894;DHT22;51343;51.396;6.656;2023-07-13T13:29:01;25.20;1.00
7894;DHT22;51343;51.396;6.656;2023-07-13T13:31:29;24.70;1.00
7894;DHT22;51343;51.396;6.656;2023-07-13T13:33:56;24.20;1.00
7894;DHT22;51343;51.396;6.656;2023-07-13T13:36:22;23.80;1.00
7894;DHT22;51343;51.396;6.656;2023-07-13T13:38:50;23.60;1.00
7894;DHT22;51343;51.396;6.656;2023-07-13T13:41:17;23.60;1.00
7894;DHT22;51343;51.396;6.656;2023-07-13T13:43:43;24.00;1.00
7894;DHT22;51343;51.396;6.656;2023-07-13T13:46:13;24.60;1.00
7894;DHT22;51343;51.396;6.656;2023-07-13T13:48:41;25.10;1.00
7894;DHT22;51343;51.396;6.656;2023-07-13T13:51:13;25.60;1.00
7894;DHT22;51343;51.396;6.656;2023-07-13T13:53:40;26.00;1.00
7894;DHT22;51343;51.396;6.656;2023-07-13T13:56:07;25.90;1.00
7894;DHT22;51343;51.396;6.656;2023-07-13T13:58:33;25.50;1.00
7894;DHT22;51343;51.396;6.656;2023-07-13T14:01:00;24.90;1.00
7894;DHT22;51343;51.396;6.656;2023-07-13T14:03:26;24.60;1.00
7894;DHT22;51343;51.396;6.656;2023-07-13T14:05:55;24.30;1.00
7894;DHT22;51343;51.396;6.656;2023-07-13T14:08:22;24.70;1.00
7894;DHT22;51343;51.396;6.656;2023-07-13T14:10:51;25.10;1.00
7894;DHT22;51343;51.396;6.656;2023-07-13T14:13:20;25.10;1.00
7894;DHT22;51343;51.396;6.656;2023-07-13T14:15:47;25.30;1.00
7894;DHT22;51343;51.396;6.656;2023-07-13T14:18:14;25.70;1.00
7894;DHT22;51343;51.396;6.656;2023-07-13T14:20:43;25.90;1.00
7894;DHT22;51343;51.396;6.656;2023-07-13T14:23:12;25.40;1.00
7894;DHT22;51343;51.396;6.656;2023-07-13T14:25:38;24.70;1.00
7894;DHT22;51343;51.396;6.656;2023-07-13T14:28:16;24.50;1.00
7894;DHT22;51343;51.396;6.656;2023-07-13T14:30:44;24.10;1.00
7894;DHT22;51343;51.396;6.656;2023-07-13T14:33:11;23.80;1.00
7894;DHT22;51343;51.396;6.656;2023-07-13T14:35:38;23.20;1.00
7894;DHT22;51343;51.396;6.656;2023-07-13T14:38:05;23.00;1.00
7894;DHT22;51343;51.396;6.656;2023-07-13T14:40:35;22.60;1.00
7894;DHT22;51343;51.396;6.656;2023-07-13T14:43:02;22.50;1.00
7894;DHT22;51343;51.396;6.656;2023-07-13T14:45:29;22.40;1.00
7894;DHT22;51343;51.396;6.656;2023-07-13T14:47:57;22.30;1.00
7894;DHT22;51343;51.396;6.656;2023-07-13T14:50:24;22.30;1.00
7894;DHT22;51343;51.396;6.656;2023-07-13T14:52:53;22.20;1.00
7894;DHT22;51343;51.396;6.656;2023-07-13T14:55:19;22.10;49.20
7894;DHT22;51343;51.396;6.656;2023-07-13T14:57:48;22.10;99.90
7894;DHT22;51343;51.396;6.656;2023-07-13T15:00:16;21.90;99.90
7894;DHT22;51343;51.396;6.656;2023-07-13T15:02:43;21.70;99.90
7894;DHT22;51343;51.396;6.656;2023-07-13T15:05:13;21.50;99.90
7894;DHT22;51343;51.396;6.656;2023-07-13T15:07:40;21.30;99.90
7894;DHT22;51343;51.396;6.656;2023-07-13T15:10:12;21.00;99.90
7894;DHT22;51343;51.396;6.656;2023-07-13T15:12:39;20.90;99.90
7894;DHT22;51343;51.396;6.656;2023-07-13T15:15:07;20.60;99.90
7894;DHT22;51343;51.396;6.656;2023-07-13T15:17:35;20.60;99.90
7894;DHT22;51343;51.396;6.656;2023-07-13T15:20:04;20.60;99.90
7894;DHT22;51343;51.396;6.656;2023-07-13T15:22:32;20.50;99.90
7894;DHT22;51343;51.396;6.656;2023-07-13T15:24:59;20.40;99.90
7894;DHT22;51343;51.396;6.656;2023-07-13T15:27:26;20.40;99.90
7894;DHT22;51343;51.396;6.656;2023-07-13T15:29:53;20.30;99.90
7894;DHT22;51343;51.396;6.656;2023-07-13T15:32:21;20.20;95.40
7894;DHT22;51343;51.396;6.656;2023-07-13T15:34:48;20.10;96.30
7894;DHT22;51343;51.396;6.656;2023-07-13T15:37:15;20.10;1.00
7894;DHT22;51343;51.396;6.656;2023-07-13T15:39:43;20.20;1.00
7894;DHT22;51343;51.396;6.656;2023-07-13T15:42:12;20.20;99.90
7894;DHT22;51343;51.396;6.656;2023-07-13T15:44:39;20.30;99.90
7894;DHT22;51343;51.396;6.656;2023-07-13T15:47:08;20.20;1.00
7894;DHT22;51343;51.396;6.656;2023-07-13T15:49:37;20.20;1.00
7894;DHT22;51343;51.396;6.656;2023-07-13T15:52:04;20.20;99.90
7894;DHT22;51343;51.396;6.656;2023-07-13T15:54:31;20.20;99.90
7894;DHT22;51343;51.396;6.656;2023-07-13T15:57:00;20.20;99.90
7894;DHT22;51343;51.396;6.656;2023-07-13T15:59:27;20.10;99.90
7894;DHT22;51343;51.396;6.656;2023-07-13T16:01:54;20.20;99.90
7894;DHT22;51343;51.396;6.656;2023-07-13T16:04:20;20.20;99.90